LOC: 23.08.2016 23:59:50
UTC: 23.08.2016 20:59:50
ilmateenistus.ee keskkonnaagentuur.ee
EETN Tallinn
FTEO31 EETN 231700
TAF EETN 231700Z 2318/2418 28008KT 9999 SCT010 SCT030CB BECMG
    2318/2320 BKN006 TEMPO 2320/2323 1200 BCFG BR BKN003 TEMPO 2323/2404
    0500 FG VV001 BECMG 2406/2408 BKN010 BECMG 2408/2410 SCT020=

METAR EETN 232050Z 25004KT 9999 BKN010 15/14 Q1020 NOSIG=
Tallinn
EEKA Kärdla
METAR EEKA 232050Z NIL=
Kärdla
EEKE Kuressaare
FCEO32 EETN 231400 AAA
TAF AMD EEKE 231800Z 2315/2321 CNL=

METAR EEKE 232050Z AUTO 27003KT 8000NDV NCD 13/13 Q1022=
Kuressaare
EEPU Pärnu
METAR EEPU 232050Z NIL=
Pärnu
EETU Tartu
METAR EETU 232050Z AUTO 25005KT 9999 NCD 14/12 Q1020=
Tartu

News

Duty Forecaster: 666 0932 aviamet@envir.ee